Main page
METAR-TAF:

METAR-TAF

Airports :

Beirut, Lebanon

Beirut Air Base

latitude: 33-49N, longitude: 035-29E, elevation: 29 m

Current weather observation

The report was made 58 minutes ago, at 13:00 UTC
Wind 10 kt from the North/Northwest
Temperature 19°C
Humidity 60%
Pressure 1017 hPa
Visibility: 8000 m
Few clouds at a height of 2600 ft

METAR: OLBA 241300Z 33010KT 8000 FEW026 19/11 Q1017

Time: 15:58 (13:58 UTC)

Forecast

The report was made 3 hours and 58 minutes ago, at 10:00 UTC
Forecast valid from 24 at 12 UTC to 25 at 18 UTC
Wind 4 kt from the East, varying between West and North/Northwest
Visibility: 8000 m
Few clouds at a height of 2600 ft
Becoming
from 25 at 06 UTC to 25 at 08 UTC
Wind 12 kt from the West, varying between West/Southwest and Northwest

TAF: OLBA 241000Z 2412/2518 32015KT 270V340 8000 FEW026 2418/2420 10004KT BECMG 2506/2508 26012KT 240V320

Weather observations and forecasts of more than 4000 airports (METAR and TAF reports).

The available stations are represented by yellow and red dots on the map.

Hover mouse over dot to see the name of the station.

Then click to see weather observations and forecasts.

To change the map : click on the green buttons with a black cross to zoom in, on the green button with a dash to zoom out, or on the green arrows for adjacent maps.


METAR-TAF: